Time;durP1;ratioP1;P1;durP2;ratioP2;P2;SDS_P1;SDS_P2;PMS_P1;PMS_P2;Temp;Humidity;BMP_temperature;BMP_pressure;BME280_temperature;BME280_humidity;BME280_pressure;Samples;Min_cycle;Max_cycle;Signal;HPM_P1;HPM_P2
2022/03/29 00:00:13;;;;;;;;;80.80;73.20;25.50;99.90;;;;;;5016642;28;8882;-66
2022/03/29 00:02:43;;;;;;;;;79.40;66.40;25.60;99.90;;;;;;5021851;28;8755;-66
2022/03/29 00:05:10;;;;;;;;;79.60;69.80;25.60;99.90;;;;;;5037776;28;8820;-66
2022/03/29 00:07:36;;;;;;;;;80.80;66.00;25.60;99.90;;;;;;5036273;28;8835;-66
2022/03/29 00:10:07;;;;;;;;;76.00;65.80;25.60;99.90;;;;;;5038264;28;8762;-66
2022/03/29 00:12:34;;;;;;;;;74.20;65.20;25.60;99.90;;;;;;5036020;28;8742;-66
2022/03/29 00:15:02;;;;;;;;;74.80;62.40;25.70;99.90;;;;;;5038034;28;8726;-66
2022/03/29 00:17:28;;;;;;;;;72.00;57.40;25.70;99.90;;;;;;5035316;28;8769;-65
2022/03/29 00:19:55;;;;;;;;;71.40;56.00;25.70;99.90;;;;;;5018119;28;9412;-66
2022/03/29 00:22:21;;;;;;;;;71.60;60.00;25.70;99.90;;;;;;5018473;28;8741;-65
2022/03/29 00:24:48;;;;;;;;;70.20;55.60;25.80;99.90;;;;;;5018207;28;8741;-66
2022/03/29 00:27:15;;;;;;;;;71.60;57.60;25.80;99.90;;;;;;5017755;28;8737;-66
2022/03/29 00:29:42;;;;;;;;;68.80;57.40;25.90;99.90;;;;;;5017500;28;8744;-65
2022/03/29 00:32:08;;;;;;;;;69.20;56.20;25.90;99.90;;;;;;5017587;28;8782;-66
2022/03/29 00:34:36;;;;;;;;;69.20;57.80;25.90;99.90;;;;;;5036702;28;8730;-65
2022/03/29 00:37:04;;;;;;;;;74.40;58.20;25.90;99.90;;;;;;5037851;28;8788;-66
2022/03/29 00:39:31;;;;;;;;;73.40;58.20;25.90;99.90;;;;;;5036381;28;8793;-66
2022/03/29 00:41:58;;;;;;;;;71.40;61.20;25.90;99.90;;;;;;5037339;28;9403;-66
2022/03/29 00:44:32;;;;;;;;;72.20;57.00;25.90;99.90;;;;;;5035686;28;8809;-65
2022/03/29 00:46:59;;;;;;;;;69.60;55.20;25.90;99.90;;;;;;5037427;28;8812;-66
2022/03/29 00:49:26;;;;;;;;;70.80;56.40;26.00;99.90;;;;;;5018595;28;8780;-65
2022/03/29 00:51:58;;;;;;;;;73.00;56.80;26.00;99.90;;;;;;5009418;28;8781;-66
2022/03/29 00:54:35;;;;;;;;;67.80;54.00;26.00;99.90;;;;;;5044387;28;8803;-65
2022/03/29 00:57:02;;;;;;;;;63.40;52.00;26.00;99.90;;;;;;5017300;28;8776;-66
2022/03/29 00:59:29;;;;;;;;;68.80;54.20;26.00;99.90;;;;;;5016710;28;8768;-66
2022/03/29 01:02:00;;;;;;;;;73.00;59.00;26.00;99.90;;;;;;5017205;28;8867;-65
2022/03/29 01:04:27;;;;;;;;;71.60;56.40;26.10;99.90;;;;;;5026163;28;8766;-65
2022/03/29 01:06:59;;;;;;;;;68.00;55.80;26.10;99.90;;;;;;5037307;28;8885;-65
2022/03/29 01:09:26;;;;;;;;;68.40;53.80;26.10;99.90;;;;;;5036513;28;8876;-65
2022/03/29 01:11:53;;;;;;;;;62.40;50.80;26.20;99.90;;;;;;5036585;28;9639;-66
2022/03/29 01:14:23;;;;;;;;;68.20;53.60;26.20;99.90;;;;;;5018915;28;8758;-65
2022/03/29 01:19:36;;;;;;;;;58.00;48.25;26.20;99.90;;;;;;5016008;28;8753;-65
2022/03/29 01:22:09;;;;;;;;;63.40;49.00;26.30;99.90;;;;;;5017178;28;8796;-66
2022/03/29 01:24:36;;;;;;;;;56.75;46.50;26.30;99.90;;;;;;5019365;28;8761;-65
2022/03/29 01:27:07;;;;;;;;;55.50;46.00;26.40;99.90;;;;;;5021156;28;8796;-65
2022/03/29 01:29:34;;;;;;;;;55.75;45.25;26.40;99.90;;;;;;5021043;28;8773;-65
2022/03/29 01:32:06;;;;;;;;;61.25;48.50;26.40;99.90;;;;;;5021034;28;8799;-65
2022/03/29 01:34:34;;;;;;;;;53.00;43.25;26.40;99.90;;;;;;5039437;28;8762;-65
2022/03/29 01:37:01;;;;;;;;;55.50;44.00;26.40;99.90;;;;;;5041313;28;8790;-66
2022/03/29 01:39:27;;;;;;;;;53.75;43.25;26.50;99.90;;;;;;5039020;28;8808;-65
2022/03/29 01:41:54;;;;;;;;;54.25;45.50;26.60;99.90;;;;;;5039355;28;8770;-66
2022/03/29 01:44:20;;;;;;;;;49.75;40.75;26.60;99.90;;;;;;5040522;28;8754;-65
2022/03/29 01:46:49;;;;;;;;;54.75;44.75;26.60;99.90;;;;;;5041026;28;8762;-66
2022/03/29 01:49:16;;;;;;;;;52.25;43.50;26.70;99.90;;;;;;5024729;28;8834;-66
2022/03/29 01:51:43;;;;;;;;;48.50;40.00;26.70;99.90;;;;;;5019671;28;8780;-66
2022/03/29 01:54:10;;;;;;;;;52.50;43.75;26.70;99.90;;;;;;5019521;28;8779;-66
2022/03/29 01:56:37;;;;;;;;;43.75;38.00;26.70;99.90;;;;;;5020991;28;8811;-66
2022/03/29 01:59:08;;;;;;;;;60.00;46.25;26.80;99.90;;;;;;5021128;28;8906;-66
2022/03/29 02:01:45;;;;;;;;;53.00;44.50;26.80;99.90;;;;;;5020402;28;8806;-65
2022/03/29 02:04:12;;;;;;;;;50.25;42.50;26.90;99.90;;;;;;5036768;28;8746;-66
2022/03/29 02:06:39;;;;;;;;;49.50;42.25;27.00;99.90;;;;;;5039031;28;8781;-66
2022/03/29 02:09:10;;;;;;;;;51.75;42.25;27.00;99.90;;;;;;5040125;28;8892;-66
2022/03/29 02:11:40;;;;;;;;;54.50;45.50;27.10;99.90;;;;;;5039572;28;8796;-66
2022/03/29 02:14:08;;;;;;;;;52.25;40.75;27.10;99.90;;;;;;5038551;28;8770;-66
2022/03/29 02:16:34;;;;;;;;;49.25;41.50;27.20;99.90;;;;;;5039827;28;8738;-66
2022/03/29 02:19:01;;;;;;;;;49.75;41.75;27.20;99.90;;;;;;5025850;28;8745;-67
2022/03/29 02:21:28;;;;;;;;;46.00;38.75;27.20;99.90;;;;;;5020171;28;8803;-67
2022/03/29 02:23:54;;;;;;;;;53.50;44.75;27.30;99.90;;;;;;5020289;28;8822;-67
2022/03/29 02:26:21;;;;;;;;;50.75;42.50;27.30;99.90;;;;;;5019856;28;8768;-66
2022/03/29 02:28:47;;;;;;;;;52.00;44.00;27.30;99.90;;;;;;5019942;28;9538;-66
2022/03/29 02:31:14;;;;;;;;;53.00;43.50;27.10;99.90;;;;;;5020676;28;8847;-66
2022/03/29 02:33:40;;;;;;;;;57.75;45.00;27.20;99.90;;;;;;5031284;28;8761;-66
2022/03/29 02:36:09;;;;;;;;;51.25;43.25;27.40;99.90;;;;;;5037613;28;8782;-66
2022/03/29 02:38:36;;;;;;;;;59.75;48.00;27.40;99.90;;;;;;5039325;28;8888;-66
2022/03/29 02:41:02;;;;;;;;;54.25;44.50;27.40;99.90;;;;;;5038242;28;8868;-67
2022/03/29 02:43:29;;;;;;;;;60.75;48.25;27.40;99.90;;;;;;5037721;28;8761;-66
2022/03/29 02:45:57;;;;;;;;;53.00;45.00;27.40;99.90;;;;;;5039867;28;8718;-66
2022/03/29 02:48:23;;;;;;;;;43.75;38.25;27.40;99.90;;;;;;5029502;28;8787;-66
2022/03/29 02:50:50;;;;;;;;;56.75;45.75;27.40;99.90;;;;;;5019330;28;8741;-66
2022/03/29 02:53:17;;;;;;;;;54.00;45.00;27.40;99.90;;;;;;5050918;28;8783;-65
2022/03/29 02:55:45;;;;;;;;;60.25;45.00;27.40;99.90;;;;;;5018190;28;8760;-66
2022/03/29 02:58:12;;;;;;;;;54.50;45.25;27.50;99.90;;;;;;5020093;28;9374;-66
2022/03/29 03:00:38;;;;;;;;;57.00;46.00;27.60;99.90;;;;;;5019201;28;8764;-66
2022/03/29 03:03:06;;;;;;;;;49.25;42.25;27.70;99.90;;;;;;5024688;28;8879;-66
2022/03/29 03:05:32;;;;;;;;;56.00;45.50;27.70;99.90;;;;;;5037397;28;8738;-67
2022/03/29 03:07:59;;;;;;;;;52.50;44.50;27.70;99.90;;;;;;5039328;28;8852;-66
2022/03/29 03:10:26;;;;;;;;;52.25;42.25;27.70;99.90;;;;;;5038880;28;8750;-65
2022/03/29 03:12:53;;;;;;;;;52.75;44.25;27.80;99.90;;;;;;5038115;28;8738;-66
2022/03/29 03:15:21;;;;;;;;;50.50;41.50;27.90;99.90;;;;;;5038505;28;8742;-64
2022/03/29 03:17:50;;;;;;;;;48.75;40.75;27.90;99.90;;;;;;5032889;28;8834;-66
2022/03/29 03:20:17;;;;;;;;;55.25;44.50;27.90;99.90;;;;;;5018957;28;9122;-66
2022/03/29 03:22:44;;;;;;;;;54.00;44.25;28.00;99.90;;;;;;5017667;28;8713;-66
2022/03/29 03:25:11;;;;;;;;;52.00;43.00;28.00;99.90;;;;;;5018246;28;8732;-66
2022/03/29 03:27:40;;;;;;;;;55.50;46.75;28.00;99.90;;;;;;5018581;28;8900;-66
2022/03/29 03:30:09;;;;;;;;;57.25;45.50;28.10;99.90;;;;;;5018893;28;8745;-66
2022/03/29 03:32:36;;;;;;;;;54.75;45.75;28.20;99.90;;;;;;5019879;28;8794;-66
2022/03/29 03:35:03;;;;;;;;;50.75;42.75;28.20;99.90;;;;;;5038886;28;8821;-66
2022/03/29 03:37:30;;;;;;;;;55.75;46.25;28.40;99.90;;;;;;5037511;28;8729;-65
2022/03/29 03:39:56;;;;;;;;;58.25;47.25;28.40;99.90;;;;;;5038703;28;8824;-66
2022/03/29 03:42:23;;;;;;;;;53.50;44.75;28.40;99.90;;;;;;5036886;28;8713;-65
2022/03/29 03:44:50;;;;;;;;;48.25;40.75;28.50;99.90;;;;;;5036785;28;8745;-65
2022/03/29 03:47:16;;;;;;;;;55.50;44.50;28.60;99.90;;;;;;5035699;28;8742;-65
2022/03/29 03:49:43;;;;;;;;;50.75;43.75;28.60;99.90;;;;;;5017939;28;8749;-66
2022/03/29 03:52:10;;;;;;;;;40.50;34.25;28.60;99.90;;;;;;5018699;28;8793;-65
2022/03/29 03:54:37;;;;;;;;;50.50;41.75;28.70;99.90;;;;;;5016696;28;8795;-65
2022/03/29 03:57:04;;;;;;;;;50.00;41.75;28.70;99.90;;;;;;5000760;28;8806;-65
2022/03/29 03:59:31;;;;;;;;;47.00;39.00;28.70;99.90;;;;;;5017764;28;8780;-65
2022/03/29 04:01:58;;;;;;;;;52.75;43.75;28.90;99.90;;;;;;5017499;28;8753;-66
2022/03/29 04:04:25;;;;;;;;;49.25;41.00;29.00;99.90;;;;;;5035557;28;9480;-64
2022/03/29 04:06:52;;;;;;;;;53.50;43.75;28.80;99.90;;;;;;5037186;28;8757;-66
2022/03/29 04:09:18;;;;;;;;;50.25;43.00;29.00;99.90;;;;;;5036473;28;8750;-64
2022/03/29 04:11:45;;;;;;;;;55.00;45.50;28.90;99.90;;;;;;5037541;28;9402;-66
2022/03/29 04:14:12;;;;;;;;;52.00;41.75;28.90;99.90;;;;;;5037729;28;8800;-66
2022/03/29 04:16:38;;;;;;;;;51.00;43.25;28.90;99.90;;;;;;5037646;28;8758;-66
2022/03/29 04:19:05;;;;;;;;;52.25;43.25;29.00;99.90;;;;;;5021674;28;8787;-66
2022/03/29 04:21:32;;;;;;;;;51.00;40.50;29.20;99.90;;;;;;5017324;28;9374;-66
2022/03/29 04:23:58;;;;;;;;;55.50;44.50;29.00;99.90;;;;;;5016519;28;8760;-66
2022/03/29 04:26:25;;;;;;;;;53.00;43.00;29.20;99.90;;;;;;5016209;28;9444;-66
2022/03/29 04:28:51;;;;;;;;;47.75;40.75;29.30;99.90;;;;;;5017749;28;8779;-66
2022/03/29 04:31:18;;;;;;;;;50.25;40.75;29.20;99.90;;;;;;5017963;28;8764;-65
2022/03/29 04:33:45;;;;;;;;;49.00;41.75;29.20;99.90;;;;;;5029700;28;9115;-66
2022/03/29 04:36:13;;;;;;;;;49.25;40.75;29.30;99.90;;;;;;5037231;28;8762;-65
2022/03/29 04:38:40;;;;;;;;;50.00;41.25;29.40;99.90;;;;;;5036028;28;8835;-66
2022/03/29 04:41:07;;;;;;;;;50.00;42.75;29.50;99.90;;;;;;5037422;28;9477;-66
2022/03/29 04:43:34;;;;;;;;;46.75;39.50;29.40;99.90;;;;;;5035425;28;8718;-66
2022/03/29 04:46:02;;;;;;;;;50.00;41.50;29.40;99.90;;;;;;5036448;28;8711;-66
2022/03/29 04:48:29;;;;;;;;;50.50;42.00;29.60;99.90;;;;;;5026682;28;8808;-66
2022/03/29 04:50:57;;;;;;;;;50.50;42.50;29.60;99.90;;;;;;5017266;28;9228;-66
2022/03/29 04:53:23;;;;;;;;;52.50;44.25;29.60;99.90;;;;;;5017206;28;8795;-65
2022/03/29 04:55:53;;;;;;;;;52.00;39.25;29.90;99.90;;;;;;5017178;28;8775;-66
2022/03/29 04:58:20;;;;;;;;;49.25;41.00;29.80;99.90;;;;;;5017114;28;8779;-65
2022/03/29 05:00:47;;;;;;;;;53.00;42.75;29.70;99.90;;;;;;5016868;28;8855;-66
2022/03/29 05:03:14;;;;;;;;;47.50;41.25;29.90;99.90;;;;;;5006997;28;8761;-66
2022/03/29 05:05:40;;;;;;;;;44.50;37.50;29.80;99.90;;;;;;5036865;28;8738;-66
2022/03/29 05:08:07;;;;;;;;;52.75;42.00;29.90;99.90;;;;;;5036905;28;8879;-66
2022/03/29 05:10:34;;;;;;;;;48.50;41.00;30.10;99.90;;;;;;5036202;28;8742;-66
2022/03/29 05:13:00;;;;;;;;;51.25;41.75;30.10;99.90;;;;;;5036146;28;8703;-66
2022/03/29 05:15:27;;;;;;;;;47.00;39.75;29.80;99.90;;;;;;5036512;28;8734;-66
2022/03/29 05:17:54;;;;;;;;;54.00;43.00;30.10;99.90;;;;;;5031510;28;8740;-66
2022/03/29 05:20:20;;;;;;;;;47.25;39.25;29.90;99.90;;;;;;5016160;28;8751;-66
2022/03/29 05:22:51;;;;;;;;;48.50;40.00;29.90;99.90;;;;;;5017121;28;9004;-66
2022/03/29 05:25:24;;;;;;;;;50.00;40.50;30.10;99.90;;;;;;5017492;28;8806;-65
2022/03/29 05:27:51;;;;;;;;;47.75;40.00;30.20;99.90;;;;;;5017028;28;8870;-66
2022/03/29 05:30:18;;;;;;;;;50.00;40.75;30.40;99.90;;;;;;5016360;28;8744;-63
2022/03/29 05:32:45;;;;;;;;;51.00;42.25;30.20;99.90;;;;;;5020619;28;8769;-66
2022/03/29 05:35:12;;;;;;;;;44.25;37.25;30.10;99.90;;;;;;5036787;28;8919;-66
2022/03/29 05:37:40;;;;;;;;;49.25;42.00;30.30;99.90;;;;;;5036298;28;8777;-66
2022/03/29 05:40:07;;;;;;;;;47.25;39.00;30.10;99.90;;;;;;5037312;28;8753;-66
2022/03/29 05:42:41;;;;;;;;;45.25;38.00;30.20;99.90;;;;;;5036283;28;8714;-66
2022/03/29 05:45:08;;;;;;;;;48.00;40.75;30.40;99.90;;;;;;5036526;28;9195;-66
2022/03/29 05:50:23;;;;;;;;;51.25;42.25;30.50;99.90;;;;;;5015376;28;8728;-65
2022/03/29 05:52:49;;;;;;;;;45.50;39.25;30.70;99.90;;;;;;5016748;28;8752;-66
2022/03/29 05:55:16;;;;;;;;;49.25;42.00;30.50;99.90;;;;;;5017168;28;8728;-66
2022/03/29 05:57:43;;;;;;;;;47.00;40.25;30.40;99.90;;;;;;5016378;28;8724;-66
2022/03/29 06:00:13;;;;;;;;;48.50;40.75;30.50;99.90;;;;;;5016453;28;8720;-67
2022/03/29 06:02:39;;;;;;;;;45.75;38.75;30.50;99.90;;;;;;5029592;28;8836;-66
2022/03/29 06:05:07;;;;;;;;;47.50;40.00;30.70;99.90;;;;;;5048349;28;8729;-66
2022/03/29 06:07:34;;;;;;;;;48.25;41.00;30.40;99.90;;;;;;5036065;28;8725;-66
2022/03/29 06:10:00;;;;;;;;;31.25;27.75;30.40;99.90;;;;;;5037043;28;8748;-66
2022/03/29 06:12:27;;;;;;;;;53.75;43.75;30.50;99.90;;;;;;5039566;28;8810;-66
2022/03/29 06:14:54;;;;;;;;;53.25;44.50;30.80;99.90;;;;;;5038451;28;8774;-66
2022/03/29 06:17:20;;;;;;;;;50.75;41.75;30.80;99.90;;;;;;5039178;28;8742;-66
2022/03/29 06:19:47;;;;;;;;;49.75;41.25;30.70;99.90;;;;;;5019928;28;8799;-65
2022/03/29 06:22:14;;;;;;;;;48.50;39.75;30.60;99.90;;;;;;5021088;28;8788;-66
2022/03/29 06:24:40;;;;;;;;;47.25;39.50;30.70;99.90;;;;;;5020596;28;8780;-64
2022/03/29 06:27:07;;;;;;;;;51.50;42.25;30.70;99.90;;;;;;5019798;28;8792;-66
2022/03/29 06:29:37;;;;;;;;;50.00;41.25;30.70;99.90;;;;;;5020069;28;8802;-66
2022/03/29 06:32:04;;;;;;;;;46.50;39.00;30.80;99.90;;;;;;5018872;28;8885;-66
2022/03/29 06:34:30;;;;;;;;;47.75;40.00;30.70;99.90;;;;;;5037957;28;8868;-66
2022/03/29 06:36:57;;;;;;;;;44.50;38.75;30.80;99.90;;;;;;5040040;28;8781;-66
2022/03/29 06:39:24;;;;;;;;;49.50;41.75;30.60;99.90;;;;;;5039767;28;8786;-66
2022/03/29 06:41:50;;;;;;;;;44.75;38.25;30.80;99.90;;;;;;5040988;28;9457;-66
2022/03/29 06:44:17;;;;;;;;;50.50;41.75;31.00;99.90;;;;;;5039718;28;8762;-64
2022/03/29 06:46:44;;;;;;;;;51.00;42.50;31.10;99.90;;;;;;5039417;28;8773;-66
2022/03/29 06:49:11;;;;;;;;;49.25;40.75;31.00;99.90;;;;;;5023826;28;8749;-66
2022/03/29 06:51:37;;;;;;;;;46.25;39.50;31.00;99.90;;;;;;5018073;28;8768;-66
2022/03/29 06:54:04;;;;;;;;;52.25;43.50;31.20;99.90;;;;;;5019539;28;8788;-66
2022/03/29 06:56:31;;;;;;;;;51.25;41.50;31.20;99.90;;;;;;5019406;28;8803;-66
2022/03/29 06:59:00;;;;;;;;;49.00;42.00;31.20;99.90;;;;;;5051263;28;9351;-66
2022/03/29 07:01:27;;;;;;;;;53.25;42.00;31.20;99.90;;;;;;5017694;28;8733;-65
2022/03/29 07:03:57;;;;;;;;;47.00;38.75;31.20;99.90;;;;;;5032946;28;8778;-66
2022/03/29 07:06:25;;;;;;;;;48.75;41.50;31.30;99.90;;;;;;5037608;28;8782;-66
2022/03/29 07:11:37;;;;;;;;;44.50;38.00;31.20;99.90;;;;;;5038621;28;8774;-66
2022/03/29 07:14:06;;;;;;;;;47.00;39.50;31.20;99.90;;;;;;5038973;28;8807;-66
2022/03/29 07:16:33;;;;;;;;;46.00;38.00;31.00;99.90;;;;;;5038406;28;8860;-66
2022/03/29 07:19:00;;;;;;;;;48.75;39.75;31.00;99.90;;;;;;5023839;28;8760;-66
2022/03/29 07:21:26;;;;;;;;;47.25;40.00;31.30;99.90;;;;;;5017461;28;9184;-66
2022/03/29 07:23:53;;;;;;;;;43.75;37.00;31.30;99.90;;;;;;5018963;28;8745;-67
2022/03/29 07:26:20;;;;;;;;;42.25;36.50;31.30;99.90;;;;;;5018743;28;8768;-65
2022/03/29 07:28:47;;;;;;;;;46.00;39.25;31.40;99.90;;;;;;5018870;28;8768;-66
2022/03/29 07:31:13;;;;;;;;;45.25;39.00;31.30;99.80;;;;;;5019300;28;8741;-66
2022/03/29 07:33:40;;;;;;;;;44.50;37.25;31.60;99.90;;;;;;5029588;28;8746;-67
2022/03/29 07:36:07;;;;;;;;;44.75;38.00;31.60;99.70;;;;;;5037346;28;8765;-66
2022/03/29 07:38:34;;;;;;;;;45.50;38.25;31.50;99.80;;;;;;5037684;28;8828;-66
2022/03/29 07:41:00;;;;;;;;;48.75;41.50;31.50;99.70;;;;;;5038449;28;8765;-66
2022/03/29 07:43:27;;;;;;;;;49.25;42.25;31.20;99.90;;;;;;5038103;28;8760;-66
2022/03/29 07:45:55;;;;;;;;;47.00;39.50;31.20;99.90;;;;;;5038953;28;8753;-66
2022/03/29 07:48:22;;;;;;;;;48.50;39.75;31.10;99.90;;;;;;5029504;28;9853;-66
2022/03/29 07:50:49;;;;;;;;;47.00;40.00;31.20;99.80;;;;;;5019063;28;9424;-66
2022/03/29 07:53:16;;;;;;;;;44.75;38.00;31.30;99.50;;;;;;5017385;28;8756;-66
2022/03/29 07:55:43;;;;;;;;;47.00;39.00;31.30;99.70;;;;;;5018554;28;9382;-66
2022/03/29 07:58:09;;;;;;;;;44.25;37.50;31.20;99.70;;;;;;5019497;28;8752;-66
2022/03/29 08:00:39;;;;;;;;;48.50;40.25;31.40;99.80;;;;;;5018478;28;8768;-66
2022/03/29 08:03:10;;;;;;;;;48.00;40.00;31.60;98.50;;;;;;5025341;28;9387;-66
2022/03/29 08:05:37;;;;;;;;;44.50;37.25;31.60;98.50;;;;;;5038301;28;8821;-66
2022/03/29 08:08:04;;;;;;;;;45.00;35.50;31.50;98.80;;;;;;5038576;28;8760;-66
2022/03/29 08:10:34;;;;;;;;;40.00;34.00;31.60;98.20;;;;;;5069973;28;8838;-66
2022/03/29 08:13:02;;;;;;;;;42.50;35.00;31.70;98.20;;;;;;5038861;28;8738;-66
2022/03/29 08:15:29;;;;;;;;;36.25;33.00;31.70;98.00;;;;;;5038124;28;8736;-66
2022/03/29 08:17:57;;;;;;;;;42.25;35.50;31.70;97.60;;;;;;5047983;28;8728;-66
2022/03/29 08:20:25;;;;;;;;;41.50;34.75;31.60;97.50;;;;;;5017873;28;9190;-66
2022/03/29 08:22:55;;;;;;;;;47.25;39.50;31.70;98.50;;;;;;5018115;28;8779;-66
2022/03/29 08:25:22;;;;;;;;;46.75;38.25;31.90;98.30;;;;;;5018528;28;8740;-65
2022/03/29 08:27:49;;;;;;;;;39.75;34.25;31.80;98.10;;;;;;5000090;28;8757;-66
2022/03/29 08:30:16;;;;;;;;;43.50;36.75;31.80;96.80;;;;;;5016560;28;9996;-66
2022/03/29 08:32:43;;;;;;;;;44.50;37.75;31.80;97.30;;;;;;5020683;28;8732;-66
2022/03/29 08:35:12;;;;;;;;;43.75;37.50;31.80;97.40;;;;;;5037633;28;8722;-66
2022/03/29 08:37:39;;;;;;;;;36.00;33.00;31.80;97.70;;;;;;5037267;28;8701;-66
2022/03/29 08:40:11;;;;;;;;;39.25;32.00;31.80;96.50;;;;;;5038069;28;8762;-66
2022/03/29 08:42:38;;;;;;;;;37.75;33.25;31.70;96.10;;;;;;5037269;28;8777;-66
2022/03/29 08:45:08;;;;;;;;;40.75;35.50;31.70;96.10;;;;;;5037545;28;8789;-66
2022/03/29 08:47:35;;;;;;;;;35.75;31.75;31.70;96.10;;;;;;5034783;28;8896;-66
2022/03/29 08:50:03;;;;;;;;;40.25;34.00;31.70;96.10;;;;;;5017954;28;8769;-66
2022/03/29 08:52:30;;;;;;;;;38.50;34.75;31.80;95.60;;;;;;5017417;28;8796;-66
2022/03/29 08:54:57;;;;;;;;;37.75;33.50;31.80;95.10;;;;;;5018278;28;8771;-65
2022/03/29 08:57:23;;;;;;;;;43.50;36.75;31.70;95.40;;;;;;5017287;28;8836;-66
2022/03/29 08:59:50;;;;;;;;;39.75;34.75;31.70;95.30;;;;;;5016811;28;8772;-66
2022/03/29 09:02:17;;;;;;;;;38.75;34.75;31.70;95.30;;;;;;5017722;28;8772;-62
2022/03/29 09:04:44;;;;;;;;;42.50;35.50;31.80;94.50;;;;;;5017356;28;8733;-66
2022/03/29 09:07:11;;;;;;;;;36.50;33.50;31.80;95.60;;;;;;5016932;28;8757;-66
2022/03/29 09:09:40;;;;;;;;;39.00;33.00;31.90;94.50;;;;;;5016929;28;8807;-66
2022/03/29 09:12:20;;;;;;;;;36.00;31.75;31.90;93.80;;;;;;5016778;28;8874;-66
2022/03/29 09:15:00;;;;;;;;;40.75;35.25;31.80;94.60;;;;;;5017128;28;8769;-66
2022/03/29 09:17:35;;;;;;;;;34.25;31.50;31.80;93.90;;;;;;5018513;28;8847;-66
2022/03/29 09:20:21;;;;;;;;;34.25;31.75;31.80;94.20;;;;;;5037100;28;8760;-66
2022/03/29 09:22:51;;;;;;;;;33.00;31.75;31.70;94.10;;;;;;5037421;28;8812;-66
2022/03/29 09:25:23;;;;;;;;;36.50;30.75;31.60;94.30;;;;;;5037465;28;8758;-66
2022/03/29 09:28:02;;;;;;;;;38.00;30.75;31.60;94.40;;;;;;5068917;28;8798;-66
2022/03/29 09:30:41;;;;;;;;;37.25;32.75;31.60;94.80;;;;;;5036811;28;8788;-66
2022/03/29 09:33:13;;;;;;;;;37.25;32.00;31.60;93.90;;;;;;5028215;28;8809;-66
2022/03/29 09:36:14;;;;;;;;;33.75;30.00;31.70;94.10;;;;;;5017016;28;8760;-66
2022/03/29 09:38:46;;;;;;;;;36.00;31.50;31.60;93.70;;;;;;4994717;28;8905;-63
2022/03/29 09:41:28;;;;;;;;;36.75;32.50;31.70;93.60;;;;;;5016703;28;9440;-64
2022/03/29 09:44:08;;;;;;;;;37.00;33.00;31.70;93.70;;;;;;4997053;28;8774;-64
2022/03/29 09:46:54;;;;;;;;;40.00;33.00;31.60;94.00;;;;;;5001266;28;10106;-63
2022/03/29 09:49:21;;;;;;;;;38.00;33.25;31.50;94.80;;;;;;5017985;28;8783;-64
2022/03/29 09:51:48;;;;;;;;;42.50;34.00;31.50;94.60;;;;;;5020633;28;8763;-64
2022/03/29 09:54:17;;;;;;;;;33.00;29.50;31.70;94.10;;;;;;5035904;28;9914;-64
2022/03/29 09:56:51;;;;;;;;;36.75;33.75;31.60;94.60;;;;;;5020657;28;8785;-64
2022/03/29 09:59:18;;;;;;;;;35.50;32.75;31.60;94.60;;;;;;5020444;28;8857;-61
2022/03/29 10:01:54;;;;;;;;;42.50;35.00;31.50;94.90;;;;;;5019291;28;8795;-64
2022/03/29 10:04:21;;;;;;;;;39.25;34.25;31.50;95.10;;;;;;5003626;28;8793;-64
2022/03/29 10:06:52;;;;;;;;;32.75;29.00;31.50;95.40;;;;;;4999542;28;8780;-64
2022/03/29 10:09:28;;;;;;;;;29.50;28.50;31.40;95.30;;;;;;5000678;28;9940;-64
2022/03/29 10:12:07;;;;;;;;;33.25;31.25;31.50;95.10;;;;;;4999268;28;8813;-64
2022/03/29 10:14:36;;;;;;;;;35.00;31.25;31.50;94.50;;;;;;5000724;28;8750;-64
2022/03/29 10:17:04;;;;;;;;;34.00;32.00;31.60;93.90;;;;;;5000483;28;8839;-66
2022/03/29 10:19:30;;;;;;;;;27.75;27.75;31.60;94.60;;;;;;5016465;28;8801;-67
2022/03/29 10:21:58;;;;;;;;;37.00;34.00;31.60;94.00;;;;;;5020641;28;8849;-66
2022/03/29 10:24:25;;;;;;;;;28.50;27.00;31.50;93.90;;;;;;5019936;28;8759;-66
2022/03/29 10:26:53;;;;;;;;;31.75;29.75;31.60;93.80;;;;;;5020039;28;8762;-66
2022/03/29 10:29:19;;;;;;;;;39.50;33.25;31.60;94.00;;;;;;5019695;28;8763;-66
2022/03/29 10:31:50;;;;;;;;;34.25;32.00;31.60;93.80;;;;;;5020015;28;8851;-66
2022/03/29 10:34:24;;;;;;;;;39.25;34.50;31.60;94.20;;;;;;5003851;28;8848;-65
2022/03/29 10:37:16;;;;;;;;;36.75;31.00;31.60;93.80;;;;;;5019001;28;8769;-66
2022/03/29 10:40:04;;;;;;;;;29.50;26.75;31.60;93.90;;;;;;5019832;28;8811;-66
2022/03/29 10:42:46;;;;;;;;;35.75;31.00;31.50;93.70;;;;;;5050939;28;8787;-67
2022/03/29 10:45:27;;;;;;;;;35.75;32.00;31.50;93.40;;;;;;5002909;28;9644;-66
2022/03/29 10:48:11;;;;;;;;;40.50;31.50;31.40;93.50;;;;;;5007931;28;8801;-66
2022/03/29 10:50:57;;;;;;;;;38.25;31.25;31.40;93.60;;;;;;5039654;28;8892;-66
2022/03/29 10:53:35;;;;;;;;;30.75;30.50;31.40;93.60;;;;;;5030053;28;8789;-66
2022/03/29 10:56:20;;;;;;;;;32.25;29.75;31.30;93.70;;;;;;5039274;28;9383;-66
2022/03/29 10:59:01;;;;;;;;;31.75;29.75;31.30;93.80;;;;;;5035150;28;8803;-67
2022/03/29 11:01:32;;;;;;;;;30.00;29.50;31.30;93.80;;;;;;5061490;28;8835;-67
2022/03/29 11:04:03;;;;;;;;;24.75;24.25;31.30;93.90;;;;;;5025066;28;8776;-67
2022/03/29 11:06:29;;;;;;;;;31.25;30.00;31.20;94.20;;;;;;5019318;28;8772;-67
2022/03/29 11:09:07;;;;;;;;;24.25;24.25;31.20;94.40;;;;;;5019106;28;8761;-67
2022/03/29 11:11:43;;;;;;;;;31.75;29.75;31.20;94.30;;;;;;5019330;28;8764;-67
2022/03/29 11:14:28;;;;;;;;;34.75;32.00;31.10;94.20;;;;;;5019189;28;8776;-67
2022/03/29 11:17:01;;;;;;;;;35.75;32.50;31.10;94.40;;;;;;5017711;28;8764;-66
2022/03/29 11:19:53;;;;;;;;;33.50;32.50;31.10;94.50;;;;;;5036497;28;9645;-66
2022/03/29 11:22:25;;;;;;;;;32.75;30.75;31.10;94.50;;;;;;5071380;28;8784;-65
2022/03/29 11:24:53;;;;;;;;;38.25;32.00;31.00;94.30;;;;;;5038876;28;8765;-67
2022/03/29 11:27:23;;;;;;;;;32.50;29.00;31.00;94.50;;;;;;5038432;28;8817;-65
2022/03/29 11:29:50;;;;;;;;;30.50;29.25;31.00;94.40;;;;;;5038339;28;8770;-66
2022/03/29 11:32:17;;;;;;;;;34.75;32.00;31.00;94.30;;;;;;5036996;28;8774;-66
2022/03/29 11:34:44;;;;;;;;;35.00;32.50;31.00;94.30;;;;;;5018772;28;8867;-66
2022/03/29 11:37:27;;;;;;;;;38.25;33.50;31.00;94.50;;;;;;5018898;28;8765;-67
2022/03/29 11:39:53;;;;;;;;;40.50;35.00;30.90;94.40;;;;;;5019620;28;8819;-66
2022/03/29 11:42:20;;;;;;;;;40.75;35.00;30.90;94.50;;;;;;5018326;28;8881;-65
2022/03/29 11:44:48;;;;;;;;;52.75;42.00;30.90;94.60;;;;;;5018708;28;8768;-66
2022/03/29 11:47:14;;;;;;;;;63.80;50.00;30.90;94.60;;;;;;5018442;28;8788;-66
2022/03/29 11:49:42;;;;;;;;;72.40;56.40;30.80;94.70;;;;;;5037721;28;8748;-66
2022/03/29 11:52:13;;;;;;;;;63.40;51.60;30.80;95.00;;;;;;5039025;28;8789;-66
2022/03/29 11:54:53;;;;;;;;;49.75;41.00;30.80;95.10;;;;;;5038169;28;8746;-66
2022/03/29 11:57:24;;;;;;;;;43.50;36.50;30.80;95.40;;;;;;5036818;28;8770;-65
2022/03/29 11:59:52;;;;;;;;;42.50;36.00;30.80;95.60;;;;;;5036768;28;8785;-66
2022/03/29 12:02:19;;;;;;;;;44.25;36.00;30.80;95.10;;;;;;5042010;28;8855;-65
2022/03/29 12:04:49;;;;;;;;;43.75;35.50;30.70;95.30;;;;;;5035338;28;9105;-66
2022/03/29 12:07:16;;;;;;;;;43.50;36.50;30.70;95.30;;;;;;5017748;28;8760;-66
2022/03/29 12:09:49;;;;;;;;;48.50;38.50;30.70;95.60;;;;;;5018112;28;8833;-66
2022/03/29 12:12:16;;;;;;;;;45.50;39.50;30.60;95.50;;;;;;5018171;28;8792;-66
2022/03/29 12:14:43;;;;;;;;;44.00;37.50;30.60;95.40;;;;;;5016144;28;8779;-66
2022/03/29 12:17:09;;;;;;;;;43.25;35.25;30.60;97.10;;;;;;5018001;28;8773;-66
2022/03/29 12:19:37;;;;;;;;;46.50;37.50;30.50;98.50;;;;;;5036204;28;8746;-65
2022/03/29 12:22:06;;;;;;;;;49.50;42.50;30.30;99.90;;;;;;5037767;28;9478;-66
2022/03/29 12:24:37;;;;;;;;;44.75;38.50;30.20;97.80;;;;;;5037743;28;8738;-66
2022/03/29 12:27:06;;;;;;;;;41.50;35.00;30.20;97.00;;;;;;5069269;28;8738;-65
2022/03/29 12:29:39;;;;;;;;;47.00;39.00;30.20;98.40;;;;;;5037110;28;8792;-66
2022/03/29 12:32:07;;;;;;;;;46.50;38.00;30.10;98.80;;;;;;5037240;28;8889;-66
2022/03/29 12:34:34;;;;;;;;;43.50;37.25;29.80;99.90;;;;;;5018656;28;8737;-66
2022/03/29 12:37:02;;;;;;;;;47.00;39.50;29.60;99.90;;;;;;5000761;28;8784;-66
2022/03/29 12:39:33;;;;;;;;;43.25;35.75;29.60;99.90;;;;;;5017143;28;8760;-66
2022/03/29 12:42:00;;;;;;;;;46.00;38.00;29.70;99.90;;;;;;5017483;28;8768;-66
2022/03/29 12:44:38;;;;;;;;;47.50;39.25;29.60;99.90;;;;;;5015923;28;9409;-66
2022/03/29 12:47:06;;;;;;;;;45.50;38.75;29.60;99.90;;;;;;5017367;28;8772;-66
2022/03/29 12:49:33;;;;;;;;;48.75;40.00;29.70;99.90;;;;;;5035239;28;8741;-66
2022/03/29 12:52:03;;;;;;;;;45.75;39.75;29.70;99.90;;;;;;5037451;28;8714;-66